sensor_id;sensor_type;location;lat;lon;timestamp;temperature;humidity
46055;DHT22;31788;6.954;-71.872;2022-12-07T00:20:21;28.70;98.50
46055;DHT22;31788;6.954;-71.872;2022-12-07T00:22:47;28.70;98.50
46055;DHT22;31788;6.954;-71.872;2022-12-07T00:25:14;28.60;98.40
46055;DHT22;31788;6.954;-71.872;2022-12-07T00:27:41;28.50;97.90
46055;DHT22;31788;6.954;-71.872;2022-12-07T00:30:08;28.50;97.70
46055;DHT22;31788;6.954;-71.872;2022-12-07T00:32:34;28.40;97.60
46055;DHT22;31788;6.954;-71.872;2022-12-07T00:35:01;28.30;97.50
46055;DHT22;31788;6.954;-71.872;2022-12-07T00:37:27;28.20;97.70
46055;DHT22;31788;6.954;-71.872;2022-12-07T00:39:54;28.00;97.90
46055;DHT22;31788;6.954;-71.872;2022-12-07T00:42:21;28.00;98.40
46055;DHT22;31788;6.954;-71.872;2022-12-07T00:44:47;27.90;98.20
46055;DHT22;31788;6.954;-71.872;2022-12-07T00:47:14;27.80;98.30
46055;DHT22;31788;6.954;-71.872;2022-12-07T00:49:40;27.80;98.50
46055;DHT22;31788;6.954;-71.872;2022-12-07T00:52:07;27.70;98.80
46055;DHT22;31788;6.954;-71.872;2022-12-07T00:54:33;27.60;98.70
46055;DHT22;31788;6.954;-71.872;2022-12-07T00:57:00;27.60;98.80
46055;DHT22;31788;6.954;-71.872;2022-12-07T00:59:26;27.60;98.90
46055;DHT22;31788;6.954;-71.872;2022-12-07T01:01:53;27.50;98.80
46055;DHT22;31788;6.954;-71.872;2022-12-07T01:04:19;27.60;98.70
46055;DHT22;31788;6.954;-71.872;2022-12-07T01:06:46;27.50;98.80
46055;DHT22;31788;6.954;-71.872;2022-12-07T01:09:14;27.40;98.90
46055;DHT22;31788;6.954;-71.872;2022-12-07T01:11:40;27.30;98.80
46055;DHT22;31788;6.954;-71.872;2022-12-07T01:14:08;27.30;98.90
46055;DHT22;31788;6.954;-71.872;2022-12-07T01:16:34;27.20;99.00
46055;DHT22;31788;6.954;-71.872;2022-12-07T01:19:01;27.20;99.00
46055;DHT22;31788;6.954;-71.872;2022-12-07T01:21:32;27.20;99.10
46055;DHT22;31788;6.954;-71.872;2022-12-07T01:24:02;27.10;99.00
46055;DHT22;31788;6.954;-71.872;2022-12-07T01:26:28;27.10;99.20
46055;DHT22;31788;6.954;-71.872;2022-12-07T01:28:55;27.10;99.00
46055;DHT22;31788;6.954;-71.872;2022-12-07T01:31:26;27.10;99.10
46055;DHT22;31788;6.954;-71.872;2022-12-07T01:33:58;27.00;99.50
46055;DHT22;31788;6.954;-71.872;2022-12-07T01:36:28;27.00;99.00
46055;DHT22;31788;6.954;-71.872;2022-12-07T01:39:01;27.00;98.80
46055;DHT22;31788;6.954;-71.872;2022-12-07T01:41:33;27.00;99.10
46055;DHT22;31788;6.954;-71.872;2022-12-07T01:44:29;27.00;99.10
46055;DHT22;31788;6.954;-71.872;2022-12-07T01:46:59;27.00;98.90
46055;DHT22;31788;6.954;-71.872;2022-12-07T01:49:40;27.10;98.80
46055;DHT22;31788;6.954;-71.872;2022-12-07T01:54:43;26.90;98.80
46055;DHT22;31788;6.954;-71.872;2022-12-07T01:57:11;26.80;99.10
46055;DHT22;31788;6.954;-71.872;2022-12-07T01:59:38;26.80;98.90
46055;DHT22;31788;6.954;-71.872;2022-12-07T02:02:10;26.70;99.10
46055;DHT22;31788;6.954;-71.872;2022-12-07T02:04:38;26.70;99.00
46055;DHT22;31788;6.954;-71.872;2022-12-07T02:07:05;26.70;98.80
46055;DHT22;31788;6.954;-71.872;2022-12-07T02:09:32;26.80;98.80
46055;DHT22;31788;6.954;-71.872;2022-12-07T02:11:59;26.80;98.60
46055;DHT22;31788;6.954;-71.872;2022-12-07T02:14:27;26.90;98.50
46055;DHT22;31788;6.954;-71.872;2022-12-07T02:17:20;26.90;98.50
46055;DHT22;31788;6.954;-71.872;2022-12-07T02:20:09;27.00;98.50
46055;DHT22;31788;6.954;-71.872;2022-12-07T02:22:51;27.00;98.40
46055;DHT22;31788;6.954;-71.872;2022-12-07T02:27:58;27.00;98.10
46055;DHT22;31788;6.954;-71.872;2022-12-07T02:30:31;27.10;98.10
46055;DHT22;31788;6.954;-71.872;2022-12-07T02:33:06;27.00;98.30
46055;DHT22;31788;6.954;-71.872;2022-12-07T02:41:47;27.00;97.40
46055;DHT22;31788;6.954;-71.872;2022-12-07T02:43:55;27.00;97.70
46055;DHT22;31788;6.954;-71.872;2022-12-07T02:46:40;27.00;97.80
46055;DHT22;31788;6.954;-71.872;2022-12-07T02:49:08;26.90;98.60
46055;DHT22;31788;6.954;-71.872;2022-12-07T02:51:40;26.80;98.70
46055;DHT22;31788;6.954;-71.872;2022-12-07T02:54:19;26.70;98.70
46055;DHT22;31788;6.954;-71.872;2022-12-07T03:00:08;26.60;99.30
46055;DHT22;31788;6.954;-71.872;2022-12-07T03:16:19;26.20;99.80
46055;DHT22;31788;6.954;-71.872;2022-12-07T03:21:33;26.10;99.90
46055;DHT22;31788;6.954;-71.872;2022-12-07T03:24:14;26.10;99.70
46055;DHT22;31788;6.954;-71.872;2022-12-07T03:26:51;26.10;99.90
46055;DHT22;31788;6.954;-71.872;2022-12-07T03:29:30;26.00;99.90
46055;DHT22;31788;6.954;-71.872;2022-12-07T03:32:08;26.00;99.90
46055;DHT22;31788;6.954;-71.872;2022-12-07T03:37:46;25.90;99.90
46055;DHT22;31788;6.954;-71.872;2022-12-07T03:43:07;25.80;99.90
46055;DHT22;31788;6.954;-71.872;2022-12-07T03:45:43;25.90;99.90
46055;DHT22;31788;6.954;-71.872;2022-12-07T03:48:26;25.90;99.90
46055;DHT22;31788;6.954;-71.872;2022-12-07T03:51:01;25.90;99.90
46055;DHT22;31788;6.954;-71.872;2022-12-07T03:53:36;25.80;99.90
46055;DHT22;31788;6.954;-71.872;2022-12-07T03:56:04;25.80;99.90
46055;DHT22;31788;6.954;-71.872;2022-12-07T03:58:31;25.90;99.80
46055;DHT22;31788;6.954;-71.872;2022-12-07T04:00:58;25.90;99.90
46055;DHT22;31788;6.954;-71.872;2022-12-07T04:03:25;25.90;99.90
46055;DHT22;31788;6.954;-71.872;2022-12-07T04:05:54;25.90;99.80
46055;DHT22;31788;6.954;-71.872;2022-12-07T04:08:20;25.90;99.90
46055;DHT22;31788;6.954;-71.872;2022-12-07T04:10:47;25.90;99.90
46055;DHT22;31788;6.954;-71.872;2022-12-07T04:13:14;25.80;99.90
46055;DHT22;31788;6.954;-71.872;2022-12-07T04:15:41;25.80;99.90
46055;DHT22;31788;6.954;-71.872;2022-12-07T04:18:08;25.80;99.90
46055;DHT22;31788;6.954;-71.872;2022-12-07T04:20:34;25.80;99.90
46055;DHT22;31788;6.954;-71.872;2022-12-07T04:23:01;25.70;99.90
46055;DHT22;31788;6.954;-71.872;2022-12-07T04:25:28;25.70;99.90
46055;DHT22;31788;6.954;-71.872;2022-12-07T04:27:55;25.70;99.90
46055;DHT22;31788;6.954;-71.872;2022-12-07T04:30:22;25.60;99.90
46055;DHT22;31788;6.954;-71.872;2022-12-07T04:32:48;25.60;99.90
46055;DHT22;31788;6.954;-71.872;2022-12-07T04:35:15;25.60;99.90
46055;DHT22;31788;6.954;-71.872;2022-12-07T04:37:42;25.60;99.90
46055;DHT22;31788;6.954;-71.872;2022-12-07T04:40:09;25.60;99.90
46055;DHT22;31788;6.954;-71.872;2022-12-07T04:42:37;25.60;99.90
46055;DHT22;31788;6.954;-71.872;2022-12-07T04:45:04;25.60;99.90
46055;DHT22;31788;6.954;-71.872;2022-12-07T04:47:31;25.50;99.90
46055;DHT22;31788;6.954;-71.872;2022-12-07T04:49:57;25.50;99.90
46055;DHT22;31788;6.954;-71.872;2022-12-07T04:52:24;25.50;99.90
46055;DHT22;31788;6.954;-71.872;2022-12-07T04:54:52;25.50;99.90
46055;DHT22;31788;6.954;-71.872;2022-12-07T04:57:18;25.50;99.90
46055;DHT22;31788;6.954;-71.872;2022-12-07T04:59:44;25.50;99.90
46055;DHT22;31788;6.954;-71.872;2022-12-07T05:02:11;25.40;99.90
46055;DHT22;31788;6.954;-71.872;2022-12-07T05:04:38;25.40;99.90
46055;DHT22;31788;6.954;-71.872;2022-12-07T05:07:04;25.40;99.90
46055;DHT22;31788;6.954;-71.872;2022-12-07T05:09:31;25.30;99.90
46055;DHT22;31788;6.954;-71.872;2022-12-07T05:11:57;25.30;99.90
46055;DHT22;31788;6.954;-71.872;2022-12-07T05:14:24;25.30;99.90
46055;DHT22;31788;6.954;-71.872;2022-12-07T05:16:51;25.30;99.90
46055;DHT22;31788;6.954;-71.872;2022-12-07T05:19:19;25.20;99.90
46055;DHT22;31788;6.954;-71.872;2022-12-07T05:21:46;25.20;99.90
46055;DHT22;31788;6.954;-71.872;2022-12-07T05:24:14;25.10;99.90
46055;DHT22;31788;6.954;-71.872;2022-12-07T05:26:42;25.10;99.90
46055;DHT22;31788;6.954;-71.872;2022-12-07T05:29:15;25.10;99.90
46055;DHT22;31788;6.954;-71.872;2022-12-07T05:31:44;25.10;99.90
46055;DHT22;31788;6.954;-71.872;2022-12-07T05:34:11;25.10;99.90
46055;DHT22;31788;6.954;-71.872;2022-12-07T05:36:38;25.20;99.90
46055;DHT22;31788;6.954;-71.872;2022-12-07T05:39:05;25.20;99.90
46055;DHT22;31788;6.954;-71.872;2022-12-07T05:41:31;25.20;99.90
46055;DHT22;31788;6.954;-71.872;2022-12-07T05:44:16;25.30;99.90
46055;DHT22;31788;6.954;-71.872;2022-12-07T05:46:43;25.30;99.90
46055;DHT22;31788;6.954;-71.872;2022-12-07T05:49:09;25.30;99.90
46055;DHT22;31788;6.954;-71.872;2022-12-07T05:51:36;25.30;99.90
46055;DHT22;31788;6.954;-71.872;2022-12-07T05:54:03;25.30;99.90
46055;DHT22;31788;6.954;-71.872;2022-12-07T05:56:30;25.30;99.70
46055;DHT22;31788;6.954;-71.872;2022-12-07T05:58:56;25.30;99.80
46055;DHT22;31788;6.954;-71.872;2022-12-07T06:01:41;25.30;99.70
46055;DHT22;31788;6.954;-71.872;2022-12-07T06:04:07;25.30;99.70
46055;DHT22;31788;6.954;-71.872;2022-12-07T06:06:34;25.30;99.50
46055;DHT22;31788;6.954;-71.872;2022-12-07T06:09:01;25.30;99.30
46055;DHT22;31788;6.954;-71.872;2022-12-07T06:11:28;25.30;99.40
46055;DHT22;31788;6.954;-71.872;2022-12-07T06:14:13;25.30;99.40
46055;DHT22;31788;6.954;-71.872;2022-12-07T06:16:40;25.30;99.20
46055;DHT22;31788;6.954;-71.872;2022-12-07T06:19:07;25.30;99.30
46055;DHT22;31788;6.954;-71.872;2022-12-07T06:21:33;25.30;99.30
46055;DHT22;31788;6.954;-71.872;2022-12-07T06:24:00;25.30;99.50
46055;DHT22;31788;6.954;-71.872;2022-12-07T06:26:26;25.30;99.20
46055;DHT22;31788;6.954;-71.872;2022-12-07T06:28:53;25.30;99.20
46055;DHT22;31788;6.954;-71.872;2022-12-07T06:31:19;25.30;99.30
46055;DHT22;31788;6.954;-71.872;2022-12-07T06:33:46;25.30;99.30
46055;DHT22;31788;6.954;-71.872;2022-12-07T06:36:13;25.30;99.20
46055;DHT22;31788;6.954;-71.872;2022-12-07T06:38:39;25.40;99.40
46055;DHT22;31788;6.954;-71.872;2022-12-07T06:41:06;25.30;99.50
46055;DHT22;31788;6.954;-71.872;2022-12-07T06:43:33;25.30;99.30
46055;DHT22;31788;6.954;-71.872;2022-12-07T06:46:00;25.30;99.50
46055;DHT22;31788;6.954;-71.872;2022-12-07T06:48:26;25.30;99.50
46055;DHT22;31788;6.954;-71.872;2022-12-07T06:50:53;25.30;99.70
46055;DHT22;31788;6.954;-71.872;2022-12-07T06:53:19;25.30;99.50
46055;DHT22;31788;6.954;-71.872;2022-12-07T06:55:46;25.30;99.80
46055;DHT22;31788;6.954;-71.872;2022-12-07T06:58:12;25.30;99.30
46055;DHT22;31788;6.954;-71.872;2022-12-07T07:00:39;25.30;99.40
46055;DHT22;31788;6.954;-71.872;2022-12-07T07:03:05;25.30;99.10
46055;DHT22;31788;6.954;-71.872;2022-12-07T07:05:32;25.30;99.20
46055;DHT22;31788;6.954;-71.872;2022-12-07T07:07:58;25.30;99.20
46055;DHT22;31788;6.954;-71.872;2022-12-07T07:10:25;25.30;99.10
46055;DHT22;31788;6.954;-71.872;2022-12-07T07:12:51;25.30;99.00
46055;DHT22;31788;6.954;-71.872;2022-12-07T07:15:18;25.30;99.00
46055;DHT22;31788;6.954;-71.872;2022-12-07T07:17:44;25.30;98.80
46055;DHT22;31788;6.954;-71.872;2022-12-07T07:20:11;25.40;98.80
46055;DHT22;31788;6.954;-71.872;2022-12-07T07:22:38;25.40;98.60
46055;DHT22;31788;6.954;-71.872;2022-12-07T07:25:04;25.40;99.00
46055;DHT22;31788;6.954;-71.872;2022-12-07T07:27:31;25.40;98.80
46055;DHT22;31788;6.954;-71.872;2022-12-07T07:29:58;25.40;98.50
46055;DHT22;31788;6.954;-71.872;2022-12-07T07:32:25;25.40;98.70
46055;DHT22;31788;6.954;-71.872;2022-12-07T07:34:51;25.50;98.90
46055;DHT22;31788;6.954;-71.872;2022-12-07T07:37:18;25.50;98.80
46055;DHT22;31788;6.954;-71.872;2022-12-07T07:39:44;25.40;98.70
46055;DHT22;31788;6.954;-71.872;2022-12-07T07:42:11;25.40;98.60
46055;DHT22;31788;6.954;-71.872;2022-12-07T07:44:37;25.40;98.80
46055;DHT22;31788;6.954;-71.872;2022-12-07T07:47:04;25.40;99.20
46055;DHT22;31788;6.954;-71.872;2022-12-07T07:49:31;25.30;99.40
46055;DHT22;31788;6.954;-71.872;2022-12-07T07:51:57;25.30;99.40
46055;DHT22;31788;6.954;-71.872;2022-12-07T07:54:24;25.30;99.10
46055;DHT22;31788;6.954;-71.872;2022-12-07T07:56:51;25.30;99.10
46055;DHT22;31788;6.954;-71.872;2022-12-07T07:59:18;25.30;98.90
46055;DHT22;31788;6.954;-71.872;2022-12-07T08:01:44;25.30;98.80
46055;DHT22;31788;6.954;-71.872;2022-12-07T08:04:11;25.30;98.80
46055;DHT22;31788;6.954;-71.872;2022-12-07T08:06:37;25.30;98.60
46055;DHT22;31788;6.954;-71.872;2022-12-07T08:09:04;25.20;98.50
46055;DHT22;31788;6.954;-71.872;2022-12-07T08:11:31;25.20;98.70
46055;DHT22;31788;6.954;-71.872;2022-12-07T08:13:58;25.20;98.40
46055;DHT22;31788;6.954;-71.872;2022-12-07T08:16:24;25.20;98.00
46055;DHT22;31788;6.954;-71.872;2022-12-07T08:18:51;25.20;98.00
46055;DHT22;31788;6.954;-71.872;2022-12-07T08:21:17;25.30;98.00
46055;DHT22;31788;6.954;-71.872;2022-12-07T08:23:44;25.20;98.00
46055;DHT22;31788;6.954;-71.872;2022-12-07T08:26:13;25.30;98.00
46055;DHT22;31788;6.954;-71.872;2022-12-07T08:28:40;25.30;98.10
46055;DHT22;31788;6.954;-71.872;2022-12-07T08:31:10;25.20;97.90
46055;DHT22;31788;6.954;-71.872;2022-12-07T08:33:38;25.20;98.00
46055;DHT22;31788;6.954;-71.872;2022-12-07T08:36:09;25.10;98.20
46055;DHT22;31788;6.954;-71.872;2022-12-07T08:38:38;25.10;98.20
46055;DHT22;31788;6.954;-71.872;2022-12-07T08:41:05;25.00;98.10
46055;DHT22;31788;6.954;-71.872;2022-12-07T08:43:32;24.90;97.90
46055;DHT22;31788;6.954;-71.872;2022-12-07T08:46:19;24.90;98.40
46055;DHT22;31788;6.954;-71.872;2022-12-07T08:49:02;24.90;98.80
46055;DHT22;31788;6.954;-71.872;2022-12-07T08:51:30;24.90;98.90
46055;DHT22;31788;6.954;-71.872;2022-12-07T08:53:59;24.90;98.90
46055;DHT22;31788;6.954;-71.872;2022-12-07T08:56:27;24.90;99.50
46055;DHT22;31788;6.954;-71.872;2022-12-07T08:58:53;24.80;99.20
46055;DHT22;31788;6.954;-71.872;2022-12-07T09:01:20;24.90;99.10
46055;DHT22;31788;6.954;-71.872;2022-12-07T09:03:47;24.90;98.80
46055;DHT22;31788;6.954;-71.872;2022-12-07T09:06:13;24.90;99.00
46055;DHT22;31788;6.954;-71.872;2022-12-07T09:08:43;24.90;98.70
46055;DHT22;31788;6.954;-71.872;2022-12-07T09:11:11;24.90;98.80
46055;DHT22;31788;6.954;-71.872;2022-12-07T09:13:38;24.80;98.90
46055;DHT22;31788;6.954;-71.872;2022-12-07T09:16:05;24.80;99.00
46055;DHT22;31788;6.954;-71.872;2022-12-07T09:18:31;24.90;99.10
46055;DHT22;31788;6.954;-71.872;2022-12-07T09:20:58;24.80;98.90
46055;DHT22;31788;6.954;-71.872;2022-12-07T09:23:25;24.80;98.70
46055;DHT22;31788;6.954;-71.872;2022-12-07T09:25:51;24.80;98.60
46055;DHT22;31788;6.954;-71.872;2022-12-07T09:28:18;24.90;98.30
46055;DHT22;31788;6.954;-71.872;2022-12-07T09:30:48;24.80;98.50
46055;DHT22;31788;6.954;-71.872;2022-12-07T09:33:15;24.80;98.50
46055;DHT22;31788;6.954;-71.872;2022-12-07T09:35:48;24.70;98.90
46055;DHT22;31788;6.954;-71.872;2022-12-07T09:38:16;24.70;98.60
46055;DHT22;31788;6.954;-71.872;2022-12-07T09:40:43;24.70;98.90
46055;DHT22;31788;6.954;-71.872;2022-12-07T09:43:16;24.60;99.20
46055;DHT22;31788;6.954;-71.872;2022-12-07T09:45:44;24.50;99.00
46055;DHT22;31788;6.954;-71.872;2022-12-07T09:48:18;24.50;99.10
46055;DHT22;31788;6.954;-71.872;2022-12-07T09:50:46;24.40;99.70
46055;DHT22;31788;6.954;-71.872;2022-12-07T09:53:33;24.30;99.90
46055;DHT22;31788;6.954;-71.872;2022-12-07T09:56:01;24.30;99.90
46055;DHT22;31788;6.954;-71.872;2022-12-07T09:58:29;24.30;99.90
46055;DHT22;31788;6.954;-71.872;2022-12-07T10:03:38;24.20;99.90
46055;DHT22;31788;6.954;-71.872;2022-12-07T10:06:06;24.20;99.90
46055;DHT22;31788;6.954;-71.872;2022-12-07T10:08:33;24.10;99.90
46055;DHT22;31788;6.954;-71.872;2022-12-07T10:11:03;24.10;99.90
46055;DHT22;31788;6.954;-71.872;2022-12-07T10:13:42;24.10;99.90
46055;DHT22;31788;6.954;-71.872;2022-12-07T10:18:54;24.10;99.90
46055;DHT22;31788;6.954;-71.872;2022-12-07T10:24:05;24.10;99.90
46055;DHT22;31788;6.954;-71.872;2022-12-07T10:26:35;24.10;99.90
46055;DHT22;31788;6.954;-71.872;2022-12-07T10:32:06;24.10;99.90
46055;DHT22;31788;6.954;-71.872;2022-12-07T10:34:50;24.20;99.90
46055;DHT22;31788;6.954;-71.872;2022-12-07T10:37:19;24.20;99.90
46055;DHT22;31788;6.954;-71.872;2022-12-07T10:39:54;24.30;99.90
46055;DHT22;31788;6.954;-71.872;2022-12-07T10:42:24;24.20;99.90
46055;DHT22;31788;6.954;-71.872;2022-12-07T10:48:02;24.30;99.90
46055;DHT22;31788;6.954;-71.872;2022-12-07T10:56:23;24.30;99.90
46055;DHT22;31788;6.954;-71.872;2022-12-07T10:59:18;24.20;99.90
46055;DHT22;31788;6.954;-71.872;2022-12-07T11:04:35;24.20;99.90
46055;DHT22;31788;6.954;-71.872;2022-12-07T11:10:13;24.20;99.90
46055;DHT22;31788;6.954;-71.872;2022-12-07T11:18:24;24.20;99.90
46055;DHT22;31788;6.954;-71.872;2022-12-07T11:23:56;24.30;99.90
46055;DHT22;31788;6.954;-71.872;2022-12-07T11:27:00;24.40;99.90
46055;DHT22;31788;6.954;-71.872;2022-12-07T11:29:46;24.40;99.90
46055;DHT22;31788;6.954;-71.872;2022-12-07T11:38:07;24.50;99.90
46055;DHT22;31788;6.954;-71.872;2022-12-07T11:40:36;24.50;99.90
46055;DHT22;31788;6.954;-71.872;2022-12-07T11:46:12;24.60;99.90
46055;DHT22;31788;6.954;-71.872;2022-12-07T11:51:23;24.70;99.90
46055;DHT22;31788;6.954;-71.872;2022-12-07T11:53:55;24.90;99.90
46055;DHT22;31788;6.954;-71.872;2022-12-07T11:56:26;24.90;99.90
46055;DHT22;31788;6.954;-71.872;2022-12-07T11:59:19;25.00;99.90
46055;DHT22;31788;6.954;-71.872;2022-12-07T12:05:19;25.20;99.80
46055;DHT22;31788;6.954;-71.872;2022-12-07T12:07:52;25.30;99.30
46055;DHT22;31788;6.954;-71.872;2022-12-07T12:10:55;25.40;99.50
46055;DHT22;31788;6.954;-71.872;2022-12-07T12:13:45;25.50;99.40
46055;DHT22;31788;6.954;-71.872;2022-12-07T12:19:27;25.70;99.00
46055;DHT22;31788;6.954;-71.872;2022-12-07T12:22:17;25.70;98.90
46055;DHT22;31788;6.954;-71.872;2022-12-07T12:24:48;25.80;98.80
46055;DHT22;31788;6.954;-71.872;2022-12-07T12:27:27;25.90;98.80
46055;DHT22;31788;6.954;-71.872;2022-12-07T12:30:01;25.90;98.60
46055;DHT22;31788;6.954;-71.872;2022-12-07T12:32:41;26.00;98.50
46055;DHT22;31788;6.954;-71.872;2022-12-07T12:35:40;26.00;98.40
46055;DHT22;31788;6.954;-71.872;2022-12-07T12:38:30;26.10;98.30
46055;DHT22;31788;6.954;-71.872;2022-12-07T12:40:58;26.20;98.20
46055;DHT22;31788;6.954;-71.872;2022-12-07T12:43:44;26.20;98.10
46055;DHT22;31788;6.954;-71.872;2022-12-07T12:59:23;26.40;97.60
46055;DHT22;31788;6.954;-71.872;2022-12-07T13:10:39;26.50;97.30
46055;DHT22;31788;6.954;-71.872;2022-12-07T13:16:35;26.50;97.10
46055;DHT22;31788;6.954;-71.872;2022-12-07T13:18:41;26.60;97.20
46055;DHT22;31788;6.954;-71.872;2022-12-07T13:37:43;26.80;97.00
46055;DHT22;31788;6.954;-71.872;2022-12-07T13:39:51;26.90;96.80
46055;DHT22;31788;6.954;-71.872;2022-12-07T13:44:58;26.90;96.70
46055;DHT22;31788;6.954;-71.872;2022-12-07T13:49:54;26.90;96.80
46055;DHT22;31788;6.954;-71.872;2022-12-07T13:52:25;26.90;96.70
46055;DHT22;31788;6.954;-71.872;2022-12-07T13:55:13;27.00;96.70
46055;DHT22;31788;6.954;-71.872;2022-12-07T13:57:41;27.00;96.60
46055;DHT22;31788;6.954;-71.872;2022-12-07T14:00:19;27.00;96.50
46055;DHT22;31788;6.954;-71.872;2022-12-07T14:03:20;27.00;96.50
46055;DHT22;31788;6.954;-71.872;2022-12-07T14:06:14;27.00;96.40
46055;DHT22;31788;6.954;-71.872;2022-12-07T14:08:42;27.10;96.50
46055;DHT22;31788;6.954;-71.872;2022-12-07T14:11:14;27.10;96.30
46055;DHT22;31788;6.954;-71.872;2022-12-07T14:13:57;27.10;96.10
46055;DHT22;31788;6.954;-71.872;2022-12-07T14:16:31;27.20;96.00
46055;DHT22;31788;6.954;-71.872;2022-12-07T14:19:00;27.20;96.00
46055;DHT22;31788;6.954;-71.872;2022-12-07T14:21:28;27.20;95.10
46055;DHT22;31788;6.954;-71.872;2022-12-07T14:24:18;27.20;94.80
46055;DHT22;31788;6.954;-71.872;2022-12-07T14:26:47;27.20;94.90
46055;DHT22;31788;6.954;-71.872;2022-12-07T14:31:53;27.30;94.90
46055;DHT22;31788;6.954;-71.872;2022-12-07T14:34:23;27.30;94.70
46055;DHT22;31788;6.954;-71.872;2022-12-07T14:36:50;27.30;94.20
46055;DHT22;31788;6.954;-71.872;2022-12-07T14:39:17;27.30;94.30
46055;DHT22;31788;6.954;-71.872;2022-12-07T14:41:44;27.40;93.30
46055;DHT22;31788;6.954;-71.872;2022-12-07T14:44:21;27.40;94.20
46055;DHT22;31788;6.954;-71.872;2022-12-07T14:46:51;27.40;94.20
46055;DHT22;31788;6.954;-71.872;2022-12-07T14:49:18;27.50;93.70
46055;DHT22;31788;6.954;-71.872;2022-12-07T14:51:46;27.50;94.00
46055;DHT22;31788;6.954;-71.872;2022-12-07T14:54:18;27.50;94.20
46055;DHT22;31788;6.954;-71.872;2022-12-07T14:56:46;27.50;94.10
46055;DHT22;31788;6.954;-71.872;2022-12-07T14:59:18;27.50;94.40
46055;DHT22;31788;6.954;-71.872;2022-12-07T15:01:45;27.60;94.30
46055;DHT22;31788;6.954;-71.872;2022-12-07T15:04:12;27.60;94.30
46055;DHT22;31788;6.954;-71.872;2022-12-07T15:06:38;27.60;94.20
46055;DHT22;31788;6.954;-71.872;2022-12-07T15:09:05;27.60;93.90
46055;DHT22;31788;6.954;-71.872;2022-12-07T15:11:32;27.70;93.60
46055;DHT22;31788;6.954;-71.872;2022-12-07T15:13:58;27.70;93.50
46055;DHT22;31788;6.954;-71.872;2022-12-07T15:16:38;27.70;93.50
46055;DHT22;31788;6.954;-71.872;2022-12-07T15:19:10;27.70;93.40
46055;DHT22;31788;6.954;-71.872;2022-12-07T15:21:38;27.70;93.20
46055;DHT22;31788;6.954;-71.872;2022-12-07T15:24:05;27.80;92.60
46055;DHT22;31788;6.954;-71.872;2022-12-07T15:26:31;27.80;93.00
46055;DHT22;31788;6.954;-71.872;2022-12-07T15:28:58;27.80;92.80
46055;DHT22;31788;6.954;-71.872;2022-12-07T15:31:25;27.90;93.50
46055;DHT22;31788;6.954;-71.872;2022-12-07T15:33:51;27.90;93.30
46055;DHT22;31788;6.954;-71.872;2022-12-07T15:36:28;27.90;93.60
46055;DHT22;31788;6.954;-71.872;2022-12-07T15:38:56;28.00;93.70
46055;DHT22;31788;6.954;-71.872;2022-12-07T15:41:24;28.00;93.50
46055;DHT22;31788;6.954;-71.872;2022-12-07T15:43:51;28.00;93.60
46055;DHT22;31788;6.954;-71.872;2022-12-07T15:46:38;28.00;93.50
46055;DHT22;31788;6.954;-71.872;2022-12-07T15:49:10;28.00;93.20
46055;DHT22;31788;6.954;-71.872;2022-12-07T15:51:37;28.00;93.40
46055;DHT22;31788;6.954;-71.872;2022-12-07T15:54:04;28.00;92.70
46055;DHT22;31788;6.954;-71.872;2022-12-07T15:56:30;28.00;92.30
46055;DHT22;31788;6.954;-71.872;2022-12-07T15:58:57;28.10;92.60
46055;DHT22;31788;6.954;-71.872;2022-12-07T16:01:23;28.10;92.70
46055;DHT22;31788;6.954;-71.872;2022-12-07T16:03:50;28.10;92.80
46055;DHT22;31788;6.954;-71.872;2022-12-07T16:06:17;28.20;92.40
46055;DHT22;31788;6.954;-71.872;2022-12-07T16:08:45;28.20;92.60
46055;DHT22;31788;6.954;-71.872;2022-12-07T16:11:12;28.20;92.50
46055;DHT22;31788;6.954;-71.872;2022-12-07T16:13:39;28.20;92.60
46055;DHT22;31788;6.954;-71.872;2022-12-07T16:16:10;28.30;92.20
46055;DHT22;31788;6.954;-71.872;2022-12-07T16:18:36;28.30;91.60
46055;DHT22;31788;6.954;-71.872;2022-12-07T16:21:03;28.30;92.20
46055;DHT22;31788;6.954;-71.872;2022-12-07T16:23:30;28.40;92.40
46055;DHT22;31788;6.954;-71.872;2022-12-07T16:26:08;28.40;92.50
46055;DHT22;31788;6.954;-71.872;2022-12-07T16:28:36;28.50;91.60
46055;DHT22;31788;6.954;-71.872;2022-12-07T16:31:08;28.50;91.40
46055;DHT22;31788;6.954;-71.872;2022-12-07T16:33:38;28.50;91.30
46055;DHT22;31788;6.954;-71.872;2022-12-07T16:36:07;28.50;91.00
46055;DHT22;31788;6.954;-71.872;2022-12-07T16:38:34;28.50;89.70
46055;DHT22;31788;6.954;-71.872;2022-12-07T16:41:02;28.50;90.40
46055;DHT22;31788;6.954;-71.872;2022-12-07T16:43:28;28.50;91.10
46055;DHT22;31788;6.954;-71.872;2022-12-07T16:45:55;28.50;91.00
46055;DHT22;31788;6.954;-71.872;2022-12-07T16:48:21;28.60;90.90
46055;DHT22;31788;6.954;-71.872;2022-12-07T16:50:48;28.60;88.70
46055;DHT22;31788;6.954;-71.872;2022-12-07T16:53:16;28.70;89.70
46055;DHT22;31788;6.954;-71.872;2022-12-07T16:55:45;28.70;88.70
46055;DHT22;31788;6.954;-71.872;2022-12-07T16:58:16;28.70;88.60
46055;DHT22;31788;6.954;-71.872;2022-12-07T17:00:44;28.80;89.70
46055;DHT22;31788;6.954;-71.872;2022-12-07T17:03:10;28.80;89.30
46055;DHT22;31788;6.954;-71.872;2022-12-07T17:05:40;28.80;90.10
46055;DHT22;31788;6.954;-71.872;2022-12-07T17:08:10;28.80;89.20
46055;DHT22;31788;6.954;-71.872;2022-12-07T17:10:40;28.80;89.50
46055;DHT22;31788;6.954;-71.872;2022-12-07T17:13:07;28.80;89.10
46055;DHT22;31788;6.954;-71.872;2022-12-07T17:16:01;28.80;89.30
46055;DHT22;31788;6.954;-71.872;2022-12-07T17:18:31;28.80;88.50
46055;DHT22;31788;6.954;-71.872;2022-12-07T17:21:06;28.80;89.30
46055;DHT22;31788;6.954;-71.872;2022-12-07T17:23:33;28.80;88.70
46055;DHT22;31788;6.954;-71.872;2022-12-07T17:26:12;28.80;88.80
46055;DHT22;31788;6.954;-71.872;2022-12-07T17:28:38;28.80;86.70
46055;DHT22;31788;6.954;-71.872;2022-12-07T17:31:07;28.80;88.50
46055;DHT22;31788;6.954;-71.872;2022-12-07T17:33:34;28.80;88.30
46055;DHT22;31788;6.954;-71.872;2022-12-07T17:36:08;28.80;87.90
46055;DHT22;31788;6.954;-71.872;2022-12-07T17:38:35;28.90;89.00
46055;DHT22;31788;6.954;-71.872;2022-12-07T17:41:14;28.90;88.00
46055;DHT22;31788;6.954;-71.872;2022-12-07T17:43:59;28.90;89.70
46055;DHT22;31788;6.954;-71.872;2022-12-07T17:46:27;28.90;89.20
46055;DHT22;31788;6.954;-71.872;2022-12-07T17:48:54;28.90;86.40
46055;DHT22;31788;6.954;-71.872;2022-12-07T17:51:21;28.90;86.90
46055;DHT22;31788;6.954;-71.872;2022-12-07T17:54:07;29.00;87.80
46055;DHT22;31788;6.954;-71.872;2022-12-07T17:56:34;29.00;87.10
46055;DHT22;31788;6.954;-71.872;2022-12-07T17:59:01;29.00;87.40
46055;DHT22;31788;6.954;-71.872;2022-12-07T18:01:28;29.00;86.30
46055;DHT22;31788;6.954;-71.872;2022-12-07T18:03:54;29.00;86.90
46055;DHT22;31788;6.954;-71.872;2022-12-07T18:06:21;29.00;87.80
46055;DHT22;31788;6.954;-71.872;2022-12-07T18:08:47;29.00;88.80
46055;DHT22;31788;6.954;-71.872;2022-12-07T18:11:14;29.10;87.90